createdAt,value
2023-04-27T00:00:13.769Z,3.70
2023-04-27T00:04:18.236Z,3.60
2023-04-27T00:08:18.630Z,3.60
2023-04-27T00:12:19.110Z,3.60
2023-04-27T00:16:19.310Z,3.60
2023-04-27T00:20:22.445Z,3.60
2023-04-27T00:24:22.723Z,3.60
2023-04-27T00:28:24.510Z,3.60
2023-04-27T00:32:24.756Z,3.60
2023-04-27T00:36:27.649Z,3.60
2023-04-27T00:40:27.780Z,3.60
2023-04-27T00:44:28.353Z,3.60
2023-04-27T00:48:29.958Z,3.60
2023-04-27T00:52:33.409Z,3.60
2023-04-27T00:56:35.324Z,3.60
2023-04-27T01:00:35.938Z,3.50
2023-04-27T01:04:37.243Z,3.50
2023-04-27T01:08:40.181Z,3.50
2023-04-27T01:12:41.300Z,3.50
2023-04-27T01:16:41.486Z,3.40
2023-04-27T01:20:43.643Z,3.40
2023-04-27T01:24:47.208Z,3.40
2023-04-27T01:28:47.672Z,3.30
2023-04-27T01:32:47.930Z,3.30
2023-04-27T01:36:48.670Z,3.30
2023-04-27T01:40:51.652Z,3.30
2023-04-27T01:44:54.700Z,3.30
2023-04-27T01:48:54.850Z,3.30
2023-04-27T01:52:55.035Z,3.30
2023-04-27T01:56:58.867Z,3.30
2023-04-27T02:00:58.946Z,3.30
2023-04-27T02:04:59.169Z,3.30
2023-04-27T02:08:59.568Z,3.30
2023-04-27T02:13:02.287Z,3.30
2023-04-27T02:17:02.568Z,3.20
2023-04-27T02:21:02.938Z,3.20
2023-04-27T02:25:03.839Z,3.20
2023-04-27T02:29:06.657Z,3.20
2023-04-27T02:33:07.368Z,3.20
2023-04-27T02:37:07.799Z,3.20
2023-04-27T02:41:08.237Z,3.30
2023-04-27T02:45:12.534Z,3.20
2023-04-27T02:49:13.068Z,3.20
2023-04-27T02:53:14.616Z,3.20
2023-04-27T02:57:15.071Z,3.20
2023-04-27T03:01:18.718Z,3.20
2023-04-27T03:05:19.067Z,3.20
2023-04-27T03:09:19.344Z,3.30
2023-04-27T03:13:19.634Z,3.20
2023-04-27T03:17:22.404Z,3.20
2023-04-27T03:21:22.703Z,3.10
2023-04-27T03:25:23.328Z,3.10
2023-04-27T03:29:23.811Z,3.10
2023-04-27T03:33:27.232Z,3.10
2023-04-27T03:37:27.552Z,3.10
2023-04-27T03:41:30.174Z,3.10
2023-04-27T03:45:31.392Z,3.10
2023-04-27T03:49:34.104Z,3.10
2023-04-27T03:53:34.275Z,3.10
2023-04-27T03:57:34.868Z,3.10
2023-04-27T04:01:35.334Z,3.10
2023-04-27T04:05:38.177Z,3.10
2023-04-27T04:09:38.563Z,3.10
2023-04-27T04:13:39.431Z,3.10
2023-04-27T04:17:39.737Z,3.10
2023-04-27T04:21:43.324Z,3.10
2023-04-27T04:25:43.579Z,3.10
2023-04-27T04:29:43.836Z,3.20
2023-04-27T04:33:44.420Z,3.20
2023-04-27T04:37:47.377Z,3.20
2023-04-27T04:41:49.392Z,3.30
2023-04-27T04:45:51.123Z,3.40
2023-04-27T04:49:51.618Z,3.50
2023-04-27T04:53:54.372Z,3.60
2023-04-27T04:57:56.486Z,3.70
2023-04-27T05:01:58.194Z,3.70
2023-04-27T05:05:58.384Z,3.90
2023-04-27T05:10:01.295Z,4.00
2023-04-27T05:14:02.019Z,4.10
2023-04-27T05:18:02.238Z,4.30
2023-04-27T05:22:02.836Z,4.40
2023-04-27T05:26:14.515Z,4.50
2023-04-27T05:30:16.719Z,4.60
2023-04-27T05:34:17.030Z,4.80
2023-04-27T05:38:17.995Z,4.90
2023-04-27T05:42:20.803Z,5.00
2023-04-27T05:46:21.344Z,5.20
2023-04-27T05:50:21.669Z,5.40
2023-04-27T05:54:22.363Z,5.60
2023-04-27T05:58:25.623Z,5.80
2023-04-27T06:02:26.267Z,5.80
2023-04-27T06:06:26.538Z,6.00
2023-04-27T06:10:27.205Z,6.20
2023-04-27T06:14:30.145Z,6.50
2023-04-27T06:18:30.696Z,6.80
2023-04-27T06:22:31.012Z,6.90
2023-04-27T06:26:31.436Z,7.00
2023-04-27T06:30:34.544Z,7.30
2023-04-27T06:34:35.352Z,7.50
2023-04-27T06:38:35.523Z,7.70
2023-04-27T06:42:35.728Z,7.90
2023-04-27T06:46:41.072Z,8.10
2023-04-27T06:50:41.480Z,8.10
2023-04-27T06:54:42.328Z,8.20
2023-04-27T06:58:42.545Z,8.10
2023-04-27T07:02:45.350Z,8.20
2023-04-27T07:06:45.758Z,8.30
2023-04-27T07:10:46.358Z,8.50
2023-04-27T07:14:46.762Z,8.60
2023-04-27T07:18:49.492Z,8.70
2023-04-27T07:22:49.703Z,9.00
2023-04-27T07:26:49.903Z,9.10
2023-04-27T07:30:50.741Z,9.50
2023-04-27T07:34:54.500Z,10.20
2023-04-27T07:38:54.825Z,10.60
2023-04-27T07:42:55.299Z,11.00
2023-04-27T07:46:58.708Z,11.10
2023-04-27T07:51:01.695Z,11.60
2023-04-27T07:55:02.208Z,11.80
2023-04-27T07:59:02.712Z,11.80
2023-04-27T08:03:03.137Z,11.50
2023-04-27T08:07:06.846Z,12.00
2023-04-27T08:11:07.323Z,12.40
2023-04-27T08:15:09.975Z,12.20
2023-04-27T08:19:10.115Z,12.60
2023-04-27T08:23:13.273Z,12.80
2023-04-27T08:27:15.665Z,13.10
2023-04-27T08:31:16.095Z,13.20
2023-04-27T08:35:16.426Z,13.30
2023-04-27T08:39:19.271Z,13.70
2023-04-27T08:43:19.500Z,13.30
2023-04-27T08:47:28.164Z,13.60
2023-04-27T08:51:35.953Z,13.70
2023-04-27T08:55:38.951Z,14.20
2023-04-27T08:59:39.241Z,14.10
2023-04-27T09:03:41.497Z,14.40
2023-04-27T09:07:41.745Z,14.70
2023-04-27T09:11:45.431Z,14.90
2023-04-27T09:15:48.658Z,15.30
2023-04-27T09:19:49.079Z,16.30
2023-04-27T09:23:49.280Z,16.90
2023-04-27T09:27:52.099Z,17.80
2023-04-27T09:31:52.292Z,18.20
2023-04-27T09:35:53.342Z,18.40
2023-04-27T09:39:53.612Z,19.30
2023-04-27T09:43:59.773Z,19.90
2023-04-27T09:48:01.303Z,20.70
2023-04-27T09:52:01.770Z,21.50
2023-04-27T09:56:19.513Z,22.00
2023-04-27T10:00:44.756Z,21.30
2023-04-27T10:05:13.729Z,20.30
2023-04-27T10:09:15.091Z,18.60
2023-04-27T10:13:26.464Z,18.40
2023-04-27T10:17:35.125Z,19.00
2023-04-27T10:21:35.465Z,18.80
2023-04-27T10:25:43.153Z,18.90
2023-04-27T10:29:46.295Z,18.10
2023-04-27T10:33:49.130Z,17.30
2023-04-27T10:37:49.403Z,16.60
2023-04-27T10:41:54.529Z,17.60
2023-04-27T10:45:54.751Z,18.50
2023-04-27T10:49:58.681Z,19.80
2023-04-27T10:54:00.186Z,20.60
2023-04-27T10:58:01.702Z,20.70
2023-04-27T11:02:01.936Z,20.80
2023-04-27T11:06:09.748Z,21.60
2023-04-27T11:10:13.230Z,21.90
2023-04-27T11:14:16.643Z,22.40
2023-04-27T11:18:17.885Z,22.40
2023-04-27T11:22:20.892Z,22.40
2023-04-27T11:26:26.743Z,21.30
2023-04-27T11:30:27.792Z,20.00
2023-04-27T11:34:34.510Z,19.20
2023-04-27T11:38:40.388Z,18.80
2023-04-27T11:42:43.605Z,18.50
2023-04-27T11:46:49.774Z,18.60
2023-04-27T11:50:51.028Z,18.50
2023-04-27T11:54:56.981Z,18.00
2023-04-27T11:58:57.332Z,18.50
2023-04-27T12:02:57.743Z,18.40
2023-04-27T12:06:58.291Z,17.70
2023-04-27T12:11:01.208Z,18.30
2023-04-27T12:15:01.911Z,18.00
2023-04-27T12:19:02.139Z,17.80
2023-04-27T12:23:02.329Z,17.60
2023-04-27T12:27:05.534Z,18.40
2023-04-27T12:31:08.540Z,20.40
2023-04-27T12:35:10.655Z,22.20
2023-04-27T12:39:23.947Z,22.20
2023-04-27T12:43:26.907Z,21.70
2023-04-27T12:47:49.778Z,21.50
2023-04-27T12:51:52.139Z,20.70
2023-04-27T12:55:53.666Z,20.00
2023-04-27T12:59:57.719Z,19.50
2023-04-27T13:04:03.468Z,19.60
2023-04-27T13:08:04.950Z,19.00
2023-04-27T13:12:05.198Z,18.20
2023-04-27T13:16:08.767Z,17.90
2023-04-27T13:20:11.971Z,17.40
2023-04-27T13:24:12.549Z,16.70
2023-04-27T13:28:12.785Z,16.50
2023-04-27T13:32:15.697Z,16.80
2023-04-27T13:36:16.508Z,16.90
2023-04-27T13:40:16.978Z,16.90
2023-04-27T13:44:17.234Z,16.50
2023-04-27T13:48:20.021Z,16.30
2023-04-27T13:52:20.440Z,16.70
2023-04-27T13:56:21.221Z,17.30
2023-04-27T14:04:37.389Z,18.60
2023-04-27T14:08:38.212Z,18.80
2023-04-27T14:12:39.126Z,18.70
2023-04-27T14:16:39.334Z,18.80
2023-04-27T14:20:42.552Z,18.50
2023-04-27T14:24:42.754Z,19.00
2023-04-27T14:28:43.544Z,19.60
2023-04-27T14:32:43.793Z,20.00
2023-04-27T14:36:46.701Z,20.40
2023-04-27T14:40:47.099Z,21.00
2023-04-27T14:44:48.707Z,20.90
2023-04-27T14:48:51.565Z,21.30
2023-04-27T14:52:58.130Z,20.40
2023-04-27T14:56:58.970Z,20.00
2023-04-27T15:00:59.264Z,20.60
2023-04-27T15:04:59.589Z,19.40
2023-04-27T15:09:02.880Z,18.50
2023-04-27T15:13:05.265Z,18.50
2023-04-27T15:17:06.724Z,19.70
2023-04-27T15:21:07.584Z,20.20
2023-04-27T15:25:12.041Z,20.00
2023-04-27T15:29:12.593Z,19.70
2023-04-27T15:33:13.347Z,19.20
2023-04-27T15:37:13.889Z,19.10
2023-04-27T15:41:16.908Z,19.20
2023-04-27T15:45:17.309Z,18.30
2023-04-27T15:49:17.637Z,17.80
2023-04-27T15:53:17.829Z,17.40
2023-04-27T15:57:21.202Z,17.60
2023-04-27T16:01:21.794Z,17.30
2023-04-27T16:05:22.448Z,17.20
2023-04-27T16:09:22.944Z,17.00
2023-04-27T16:13:27.369Z,16.90
2023-04-27T16:17:28.075Z,16.90
2023-04-27T16:21:29.251Z,16.80
2023-04-27T16:25:29.409Z,17.20
2023-04-27T16:29:32.383Z,18.40
2023-04-27T16:33:32.602Z,19.60
2023-04-27T16:37:35.686Z,21.10
2023-04-27T16:41:36.090Z,22.70
2023-04-27T16:45:41.897Z,23.30
2023-04-27T16:49:42.426Z,22.00
2023-04-27T16:54:32.048Z,21.60
2023-04-27T16:58:33.638Z,21.00
2023-04-27T17:02:36.925Z,20.60
2023-04-27T17:06:37.584Z,19.70
2023-04-27T17:10:38.764Z,18.10
2023-04-27T17:14:39.796Z,17.30
2023-04-27T17:18:43.154Z,16.70
2023-04-27T17:22:43.404Z,16.00
2023-04-27T17:26:43.588Z,15.50
2023-04-27T17:30:43.791Z,15.30
2023-04-27T17:34:46.837Z,15.10
2023-04-27T17:38:47.393Z,14.90
2023-04-27T17:42:48.175Z,14.70
2023-04-27T17:46:54.106Z,14.60
2023-04-27T17:50:57.494Z,14.50
2023-04-27T17:54:58.597Z,14.50
2023-04-27T17:58:58.730Z,14.40
2023-04-27T18:02:59.347Z,14.30
2023-04-27T18:07:02.524Z,14.30
2023-04-27T18:11:03.166Z,14.30
2023-04-27T18:15:05.535Z,14.00
2023-04-27T18:19:07.265Z,13.80
2023-04-27T18:23:10.428Z,13.40
2023-04-27T18:27:10.686Z,13.20
2023-04-27T18:31:17.519Z,12.90
2023-04-27T18:35:18.053Z,12.70
2023-04-27T18:39:21.003Z,12.40
2023-04-27T18:43:21.265Z,12.20
2023-04-27T18:47:21.708Z,12.00
2023-04-27T18:51:23.258Z,11.80
2023-04-27T18:55:26.371Z,11.60
2023-04-27T18:59:26.812Z,11.40
2023-04-27T19:03:28.017Z,11.20
2023-04-27T19:07:28.909Z,11.10
2023-04-27T19:11:32.384Z,10.90
2023-04-27T19:15:32.884Z,10.80
2023-04-27T19:19:33.542Z,10.60
2023-04-27T19:23:33.987Z,10.50
2023-04-27T19:27:37.044Z,10.30
2023-04-27T19:31:39.881Z,10.20
2023-04-27T19:35:40.276Z,10.10
2023-04-27T19:39:41.344Z,10.00
2023-04-27T19:43:44.413Z,9.90
2023-04-27T19:47:44.739Z,9.80
2023-04-27T19:51:45.379Z,9.70
2023-04-27T19:55:45.554Z,9.60
2023-04-27T19:59:48.614Z,9.50
2023-04-27T20:03:49.158Z,9.40
2023-04-27T20:07:50.194Z,9.30
2023-04-27T20:11:50.368Z,9.20
2023-04-27T20:15:53.682Z,9.10
2023-04-27T20:19:59.352Z,9.00
2023-04-27T20:23:59.816Z,8.90
2023-04-27T20:28:00.179Z,8.80
2023-04-27T20:32:03.235Z,8.70
2023-04-27T20:36:16.208Z,8.60
2023-04-27T20:40:19.198Z,8.50
2023-04-27T20:44:20.943Z,8.40
2023-04-27T20:48:24.204Z,8.20
2023-04-27T20:52:25.410Z,8.20
2023-04-27T20:56:26.332Z,8.10
2023-04-27T21:00:27.048Z,8.10
2023-04-27T21:04:29.958Z,8.00
2023-04-27T21:08:33.896Z,7.90
2023-04-27T21:12:34.238Z,7.80
2023-04-27T21:16:34.536Z,7.80
2023-04-27T21:20:37.637Z,7.70
2023-04-27T21:24:37.917Z,7.70
2023-04-27T21:28:38.172Z,7.70
2023-04-27T21:32:38.349Z,7.60
2023-04-27T21:36:41.214Z,7.50
2023-04-27T21:40:41.521Z,7.40
2023-04-27T21:44:41.826Z,7.30
2023-04-27T21:48:42.124Z,7.30
2023-04-27T21:52:44.986Z,7.20
2023-04-27T21:56:45.430Z,7.20
2023-04-27T22:00:45.942Z,7.20
2023-04-27T22:04:46.298Z,7.10
2023-04-27T22:08:49.526Z,7.10
2023-04-27T22:12:49.801Z,7.00
2023-04-27T22:16:50.336Z,7.00
2023-04-27T22:20:50.666Z,7.10
2023-04-27T22:24:54.067Z,7.10
2023-04-27T22:28:54.286Z,7.20
2023-04-27T22:32:54.916Z,7.20
2023-04-27T22:36:55.999Z,7.20
2023-04-27T22:40:59.226Z,7.20
2023-04-27T22:44:59.356Z,7.20
2023-04-27T22:49:01.676Z,7.20
2023-04-27T22:53:02.259Z,7.20
2023-04-27T22:57:05.339Z,7.10
2023-04-27T23:01:06.296Z,7.10
2023-04-27T23:05:07.268Z,7.10
2023-04-27T23:09:07.597Z,7.10
2023-04-27T23:13:10.960Z,7.10
2023-04-27T23:17:12.163Z,7.20
2023-04-27T23:21:13.276Z,7.20
2023-04-27T23:25:14.015Z,7.30
2023-04-27T23:29:16.930Z,7.30
2023-04-27T23:33:17.222Z,7.30
2023-04-27T23:37:17.503Z,7.40
2023-04-27T23:41:17.730Z,7.40
2023-04-27T23:45:20.741Z,7.40
2023-04-27T23:49:20.896Z,7.40
2023-04-27T23:53:21.129Z,7.40
2023-04-27T23:57:21.251Z,7.30
